Time;durP1;ratioP1;P1;durP2;ratioP2;P2;SDS_P1;SDS_P2;PMS_P1;PMS_P2;Temp;Humidity;BMP_temperature;BMP_pressure;BME280_temperature;BME280_humidity;BME280_pressure;Samples;Min_cycle;Max_cycle;Signal;HPM_P1;HPM_P2
2022/09/01 00:00:57;;;;;;;;;;;;;;;22.30;66.89;97240.62;180502;292;630403;-46
2022/09/01 00:02:01;;;;;;;;;;;;;;;22.30;66.92;97235.09;180729;291;662532;-44
2022/09/01 00:03:03;;;;;;;;;;;;;;;22.30;66.91;97236.47;180051;292;662629;-45
2022/09/01 00:04:07;;;;;;;;;;;;;;;22.29;66.90;97235.67;181347;291;661509;-44
2022/09/01 00:05:08;;;;;;;;;;;;;;;22.28;66.90;97235.44;180295;292;632420;-44
2022/09/01 00:06:10;;;;;;;;;;;;;;;22.28;66.91;97236.81;181005;291;661636;-43
2022/09/01 00:07:12;;;;;;;;;;;;;;;22.28;66.91;97231.86;180253;292;663782;-45
2022/09/01 00:08:14;;;;;;;;;;;;;;;22.28;66.89;97242.91;180823;291;662693;-49
2022/09/01 00:09:16;;;;;;;;;;;;;;;22.28;66.91;97241.53;180713;291;660566;-49
2022/09/01 00:10:18;;;;;;;;;;;;;;;22.26;66.91;97239.67;180791;291;663051;-45
2022/09/01 00:11:20;;;;;;;;;;;;;;;22.25;66.88;97230.59;180934;291;662743;-46
2022/09/01 00:12:24;;;;;;;;;;;;;;;22.26;66.91;97235.53;180148;292;661692;-48
2022/09/01 00:13:26;;;;;;;;;;;;;;;22.26;66.91;97234.16;181296;291;627474;-46
2022/09/01 00:14:28;;;;;;;;;;;;;;;22.24;66.90;97238.63;180155;292;663859;-48
2022/09/01 00:15:30;;;;;;;;;;;;;;;22.24;66.91;97238.63;180729;291;659985;-44
2022/09/01 00:16:32;;;;;;;;;;;;;;;22.24;66.91;97240.02;180756;292;663899;-45
2022/09/01 00:17:34;;;;;;;;;;;;;;;22.23;66.91;97239.20;180749;292;663970;-44
2022/09/01 00:18:36;;;;;;;;;;;;;;;22.22;66.94;97233.45;180373;292;661757;-45
2022/09/01 00:19:38;;;;;;;;;;;;;;;22.23;66.93;97235.64;181389;291;660589;-46
2022/09/01 00:20:40;;;;;;;;;;;;;;;22.20;66.92;97233.52;180715;292;662825;-42
2022/09/01 00:21:42;;;;;;;;;;;;;;;22.20;66.93;97235.70;180784;291;662862;-45
2022/09/01 00:22:44;;;;;;;;;;;;;;;22.20;66.94;97234.33;181085;292;664273;-45
2022/09/01 00:23:46;;;;;;;;;;;;;;;22.20;66.93;97238.47;181012;291;661279;-47
2022/09/01 00:24:48;;;;;;;;;;;;;;;22.19;66.95;97234.66;180959;292;659975;-44
2022/09/01 00:25:50;;;;;;;;;;;;;;;22.19;66.96;97233.28;180935;291;662551;-47
2022/09/01 00:26:52;;;;;;;;;;;;;;;22.18;66.96;97227.52;180811;292;663541;-45
2022/09/01 00:27:58;;;;;;;;;;;;;;;22.17;66.97;97231.43;181073;292;659710;-44
2022/09/01 00:28:58;;;;;;;;;;;;;;;22.18;66.98;97231.09;180711;292;632027;-46
2022/09/01 00:30:00;;;;;;;;;;;;;;;22.16;67.01;97226.48;180746;291;661216;-44
2022/09/01 00:31:03;;;;;;;;;;;;;;;22.16;66.98;97232.58;181193;291;662734;-44
2022/09/01 00:32:05;;;;;;;;;;;;;;;22.16;66.98;97231.20;180928;291;661607;-43
2022/09/01 00:33:07;;;;;;;;;;;;;;;22.16;67.00;97229.81;180678;292;662741;-44
2022/09/01 00:34:09;;;;;;;;;;;;;;;22.15;67.00;97235.09;181278;291;663697;-43
2022/09/01 00:35:11;;;;;;;;;;;;;;;22.12;67.01;97226.92;181400;291;663447;-44
2022/09/01 00:36:13;;;;;;;;;;;;;;;22.13;67.02;97228.53;181150;291;660993;-46
2022/09/01 00:37:15;;;;;;;;;;;;;;;22.13;67.03;97229.11;180503;292;662067;-44
2022/09/01 00:38:17;;;;;;;;;;;;;;;22.13;67.06;97229.11;181024;291;663353;-45
2022/09/01 00:39:19;;;;;;;;;;;;;;;22.11;67.04;97229.98;180783;291;662705;-47
2022/09/01 00:40:21;;;;;;;;;;;;;;;22.11;67.05;97228.03;180967;292;661424;-44
2022/09/01 00:41:23;;;;;;;;;;;;;;;22.11;67.06;97229.98;180895;291;660192;-45
2022/09/01 00:42:25;;;;;;;;;;;;;;;22.10;67.06;97226.98;181106;291;663364;-45
2022/09/01 00:43:27;;;;;;;;;;;;;;;22.10;67.06;97229.75;181460;291;663861;-45
2022/09/01 00:44:30;;;;;;;;;;;;;;;22.09;67.09;97227.56;181373;291;662657;-43
2022/09/01 00:45:32;;;;;;;;;;;;;;;22.08;67.09;97226.52;180852;291;663559;-48
2022/09/01 00:46:34;;;;;;;;;;;;;;;22.08;67.12;97225.95;180762;292;662789;-44
2022/09/01 00:47:36;;;;;;;;;;;;;;;22.07;67.13;97229.85;180993;291;663532;-44
2022/09/01 00:48:38;;;;;;;;;;;;;;;22.07;67.13;97234.56;181028;291;663708;-47
2022/09/01 00:49:40;;;;;;;;;;;;;;;22.06;67.14;97227.39;182943;289;661786;-44
2022/09/01 00:50:42;;;;;;;;;;;;;;;22.06;67.16;97229.61;181636;290;663866;-44
2022/09/01 00:51:44;;;;;;;;;;;;;;;22.05;67.14;97227.16;181362;290;662657;-44
2022/09/01 00:52:46;;;;;;;;;;;;;;;22.05;67.15;97234.06;181511;290;662114;-44
2022/09/01 00:53:48;;;;;;;;;;;;;;;22.05;67.15;97229.92;181344;290;662507;-46
2022/09/01 00:54:50;;;;;;;;;;;;;;;22.04;67.16;97233.25;181519;290;661342;-49
2022/09/01 00:55:52;;;;;;;;;;;;;;;22.04;67.18;97226.92;181467;290;664230;-46
2022/09/01 00:56:54;;;;;;;;;;;;;;;22.05;67.18;97236.81;181195;292;663393;-44
2022/09/01 00:57:56;;;;;;;;;;;;;;;22.04;67.18;97226.92;181270;291;622031;-46
2022/09/01 00:58:58;;;;;;;;;;;;;;;22.03;67.19;97221.17;180940;291;661612;-47
2022/09/01 01:00:00;;;;;;;;;;;;;;;22.02;67.21;97216.79;181087;291;662421;-44
2022/09/01 01:01:02;;;;;;;;;;;;;;;22.02;67.24;97218.17;181048;291;662907;-46
2022/09/01 01:02:04;;;;;;;;;;;;;;;22.02;67.23;97222.31;181136;292;662830;-45
2022/09/01 01:03:06;;;;;;;;;;;;;;;22.01;67.22;97224.80;180925;291;661280;-48
2022/09/01 01:04:13;;;;;;;;;;;;;;;21.99;67.26;97220.19;180755;291;663551;-43
2022/09/01 01:05:15;;;;;;;;;;;;;;;21.99;67.26;97220.19;180924;292;632814;-45
2022/09/01 01:06:18;;;;;;;;;;;;;;;21.98;67.29;97226.86;180954;292;663318;-44
2022/09/01 01:07:21;;;;;;;;;;;;;;;21.99;67.27;97220.19;180923;291;661844;-44
2022/09/01 01:08:28;;;;;;;;;;;;;;;21.98;67.28;97223.52;180832;291;661335;-46
2022/09/01 01:09:27;;;;;;;;;;;;;;;21.97;67.28;97227.42;181092;292;635082;-45
2022/09/01 01:10:31;;;;;;;;;;;;;;;21.98;67.30;97221.34;180793;291;661009;-45
2022/09/01 01:11:32;;;;;;;;;;;;;;;21.97;67.30;97221.09;180991;292;632496;-45
2022/09/01 01:12:39;;;;;;;;;;;;;;;21.95;67.31;97220.86;180871;291;662709;-44
2022/09/01 01:13:38;;;;;;;;;;;;;;;21.96;67.30;97223.05;181243;292;628494;-42
2022/09/01 01:14:40;;;;;;;;;;;;;;;21.97;67.30;97226.05;181235;291;662368;-44
2022/09/01 01:15:45;;;;;;;;;;;;;;;21.95;67.33;97218.67;180976;292;662386;-44
2022/09/01 01:16:46;;;;;;;;;;;;;;;21.95;67.33;97222.81;181297;291;638131;-43
2022/09/01 01:17:48;;;;;;;;;;;;;;;21.94;67.33;97222.00;181212;292;661197;-45
2022/09/01 01:18:50;;;;;;;;;;;;;;;21.93;67.33;97220.96;180730;291;661583;-44
2022/09/01 01:23:51;;;;;;;;;;;;;;;21.91;67.38;97220.48;182224;289;622371;-46
2022/09/01 01:24:54;;;;;;;;;;;;;;;21.90;67.36;97220.22;182375;289;662825;-46
2022/09/01 01:25:56;;;;;;;;;;;;;;;21.91;67.39;97221.87;182543;289;662408;-50
2022/09/01 01:27:02;;;;;;;;;;;;;;;21.89;67.39;97220.80;182425;289;660614;-48
2022/09/01 01:28:04;;;;;;;;;;;;;;;21.90;67.41;97218.84;182047;289;662848;-43
2022/09/01 01:29:08;;;;;;;;;;;;;;;21.89;67.42;97216.66;181989;289;661847;-45
2022/09/01 01:30:09;;;;;;;;;;;;;;;21.89;67.40;97222.17;182021;289;630758;-44
2022/09/01 01:31:11;;;;;;;;;;;;;;;21.89;67.42;97227.69;182115;289;661631;-49
2022/09/01 01:32:13;;;;;;;;;;;;;;;21.89;67.41;97219.98;182338;289;663796;-44
2022/09/01 01:33:16;;;;;;;;;;;;;;;21.88;67.39;97221.94;182423;289;662997;-47
2022/09/01 01:34:18;;;;;;;;;;;;;;;21.89;67.40;97231.02;182618;289;661413;-46
2022/09/01 01:35:20;;;;;;;;;;;;;;;21.88;67.40;97223.89;182121;289;661223;-43
2022/09/01 01:36:31;;;;;;;;;;;;;;;21.88;67.41;97230.22;182632;289;663198;-47
2022/09/01 01:37:26;;;;;;;;;;;;;;;21.87;67.40;97223.65;182098;289;631184;-50
2022/09/01 01:38:29;;;;;;;;;;;;;;;21.86;67.40;97225.60;182209;289;663545;-45
2022/09/01 01:39:31;;;;;;;;;;;;;;;21.87;67.41;97229.98;182296;289;663553;-44
2022/09/01 01:40:33;;;;;;;;;;;;;;;21.85;67.41;97219.84;182201;289;662752;-45
2022/09/01 01:41:35;;;;;;;;;;;;;;;21.86;67.42;97222.84;182203;289;663574;-49
2022/09/01 01:42:37;;;;;;;;;;;;;;;21.85;67.45;97218.47;182346;289;660866;-46
2022/09/01 01:43:39;;;;;;;;;;;;;;;21.86;67.47;97221.46;182446;289;660351;-45
2022/09/01 01:44:41;;;;;;;;;;;;;;;21.85;67.46;97221.23;182611;289;663769;-44
2022/09/01 01:45:43;;;;;;;;;;;;;;;21.85;67.46;97221.23;182462;289;663602;-48
2022/09/01 01:46:45;;;;;;;;;;;;;;;21.85;67.48;97220.42;182190;289;663419;-43
2022/09/01 01:47:51;;;;;;;;;;;;;;;21.84;67.48;97219.61;182212;289;661783;-46
2022/09/01 01:48:51;;;;;;;;;;;;;;;21.84;67.50;97215.47;182062;289;630082;-44
2022/09/01 01:49:53;;;;;;;;;;;;;;;21.84;67.48;97214.66;181987;289;662593;-47
2022/09/01 01:50:59;;;;;;;;;;;;;;;21.85;67.49;97221.80;182360;289;664032;-46
2022/09/01 01:52:00;;;;;;;;;;;;;;;21.82;67.48;97220.52;182729;288;629154;-46
2022/09/01 01:53:01;;;;;;;;;;;;;;;21.83;67.47;97220.75;182282;289;662641;-47
2022/09/01 01:54:04;;;;;;;;;;;;;;;21.82;67.49;97220.52;181169;291;663695;-44
2022/09/01 01:55:11;;;;;;;;;;;;;;;21.83;67.51;97222.13;180912;291;663232;-48
2022/09/01 01:56:10;;;;;;;;;;;;;;;21.82;67.51;97226.03;181050;292;630596;-44
2022/09/01 01:57:16;;;;;;;;;;;;;;;21.83;67.53;97226.27;181045;291;662529;-45
2022/09/01 01:58:18;;;;;;;;;;;;;;;21.82;67.50;97221.09;181523;291;631308;-45
2022/09/01 01:59:21;;;;;;;;;;;;;;;21.81;67.49;97224.42;180589;292;629304;-47
2022/09/01 02:00:23;;;;;;;;;;;;;;;21.81;67.50;97220.85;181131;291;661617;-46
2022/09/01 02:01:27;;;;;;;;;;;;;;;21.81;67.49;97224.42;180809;292;663908;-44
2022/09/01 02:02:28;;;;;;;;;;;;;;;21.81;67.48;97224.42;181135;291;630716;-47
2022/09/01 02:03:35;;;;;;;;;;;;;;;21.80;67.49;97221.42;180815;292;662297;-44
2022/09/01 02:04:34;;;;;;;;;;;;;;;21.80;67.49;97222.80;180801;292;631782;-44
2022/09/01 02:05:36;;;;;;;;;;;;;;;21.79;67.52;97222.53;181229;291;663247;-45
2022/09/01 02:06:43;;;;;;;;;;;;;;;21.80;67.49;97220.05;180885;292;661276;-49
2022/09/01 02:07:42;;;;;;;;;;;;;;;21.79;67.51;97221.16;182312;289;631107;-48
2022/09/01 02:08:44;;;;;;;;;;;;;;;21.79;67.53;97223.11;181962;289;662506;-46
2022/09/01 02:09:47;;;;;;;;;;;;;;;21.80;67.51;97217.83;182262;289;661093;-47
2022/09/01 02:10:49;;;;;;;;;;;;;;;21.79;67.53;97221.16;182172;289;662756;-44
2022/09/01 02:11:57;;;;;;;;;;;;;;;21.78;67.54;97223.67;182304;289;662350;-44
2022/09/01 02:13:03;;;;;;;;;;;;;;;21.78;67.55;97222.30;182523;288;629143;-45
2022/09/01 02:14:01;;;;;;;;;;;;;;;21.78;67.56;97222.30;182389;288;635680;-48
2022/09/01 02:15:06;;;;;;;;;;;;;;;21.79;67.56;97221.73;182498;289;662975;-44
2022/09/01 02:16:10;;;;;;;;;;;;;;;21.78;67.57;97223.67;182717;289;634907;-46
2022/09/01 02:17:10;;;;;;;;;;;;;;;21.79;67.57;97224.48;182246;288;629044;-45
2022/09/01 02:18:13;;;;;;;;;;;;;;;21.78;67.60;97221.48;182232;289;662903;-47
2022/09/01 02:19:18;;;;;;;;;;;;;;;21.78;67.60;97220.92;182070;289;661339;-44
2022/09/01 02:20:18;;;;;;;;;;;;;;;21.77;67.59;97216.55;182390;288;628529;-47
2022/09/01 02:21:21;;;;;;;;;;;;;;;21.76;67.61;97216.30;181407;290;662652;-44
2022/09/01 02:22:23;;;;;;;;;;;;;;;21.77;67.62;97216.55;180972;291;662413;-47
2022/09/01 02:23:25;;;;;;;;;;;;;;;21.77;67.62;97220.68;181211;292;662795;-44
2022/09/01 02:24:30;;;;;;;;;;;;;;;21.77;67.62;97213.78;181295;291;662715;-47
2022/09/01 02:25:30;;;;;;;;;;;;;;;21.76;67.63;97213.55;181031;292;630937;-43
2022/09/01 02:26:32;;;;;;;;;;;;;;;21.76;67.60;97212.17;181007;291;662493;-46
2022/09/01 02:27:38;;;;;;;;;;;;;;;21.76;67.62;97210.78;180715;292;662623;-44
2022/09/01 02:28:41;;;;;;;;;;;;;;;21.77;67.63;97214.35;181346;291;630965;-44
2022/09/01 02:29:42;;;;;;;;;;;;;;;21.77;67.63;97213.78;180516;292;631041;-49
2022/09/01 02:30:44;;;;;;;;;;;;;;;21.76;67.62;97205.84;180900;291;661200;-44
2022/09/01 02:31:46;;;;;;;;;;;;;;;21.76;67.62;97208.03;181013;292;662579;-44
2022/09/01 02:32:48;;;;;;;;;;;;;;;21.77;67.64;97212.41;181104;291;661794;-47
2022/09/01 02:33:51;;;;;;;;;;;;;;;21.75;67.61;97214.69;180676;292;662093;-44
2022/09/01 02:34:53;;;;;;;;;;;;;;;21.75;67.63;97209.74;180889;291;663844;-46
2022/09/01 02:35:54;;;;;;;;;;;;;;;21.75;67.64;97210.55;181188;292;660486;-56
2022/09/01 02:36:56;;;;;;;;;;;;;;;21.75;67.64;97209.17;181080;291;663061;-53
2022/09/01 02:37:59;;;;;;;;;;;;;;;21.73;67.62;97204.56;181164;291;663421;-44
2022/09/01 02:39:01;;;;;;;;;;;;;;;21.74;67.64;97213.07;180858;292;663060;-49
2022/09/01 02:40:03;;;;;;;;;;;;;;;21.75;67.64;97210.55;180781;292;661220;-46
2022/09/01 02:41:06;;;;;;;;;;;;;;;21.74;67.66;97212.27;180919;291;662124;-47
2022/09/01 02:42:09;;;;;;;;;;;;;;;21.75;67.64;97205.61;180565;292;660545;-45
2022/09/01 02:43:12;;;;;;;;;;;;;;;21.74;67.65;97205.37;180764;291;663225;-45
2022/09/01 02:44:14;;;;;;;;;;;;;;;21.74;67.64;97210.31;181036;292;662546;-44
2022/09/01 02:45:18;;;;;;;;;;;;;;;21.73;67.65;97203.17;181125;291;662880;-45
2022/09/01 02:46:22;;;;;;;;;;;;;;;21.74;67.65;97202.03;181001;292;634512;-47
2022/09/01 02:47:26;;;;;;;;;;;;;;;21.74;67.65;97200.66;180688;291;633539;-45
2022/09/01 02:48:31;;;;;;;;;;;;;;;21.74;67.65;97205.37;180641;292;630990;-52
2022/09/01 02:49:30;;;;;;;;;;;;;;;21.72;67.63;97207.08;180535;291;631923;-44
2022/09/01 02:50:32;;;;;;;;;;;;;;;21.73;67.62;97200.42;181181;292;661200;-46
2022/09/01 02:51:34;;;;;;;;;;;;;;;21.73;67.61;97204.56;180993;291;663471;-47
2022/09/01 02:52:36;;;;;;;;;;;;;;;21.72;67.64;97202.95;181059;291;662263;-46
2022/09/01 02:53:40;;;;;;;;;;;;;;;21.74;67.62;97202.61;181110;291;663567;-44
2022/09/01 02:54:44;;;;;;;;;;;;;;;21.71;67.62;97202.70;180798;291;662749;-46
2022/09/01 02:55:46;;;;;;;;;;;;;;;21.72;67.63;97198.00;181260;292;662370;-44
2022/09/01 02:56:48;;;;;;;;;;;;;;;21.71;67.64;97199.95;180743;291;662609;-46
2022/09/01 02:57:54;;;;;;;;;;;;;;;21.70;67.64;97203.04;180934;291;661824;-49
2022/09/01 02:58:54;;;;;;;;;;;;;;;21.71;67.63;97199.95;180938;292;632325;-44
2022/09/01 02:59:57;;;;;;;;;;;;;;;21.70;67.62;97200.28;181053;291;663651;-46
2022/09/01 03:00:59;;;;;;;;;;;;;;;21.71;67.64;97201.33;181203;291;661484;-45
2022/09/01 03:02:01;;;;;;;;;;;;;;;21.71;67.63;97204.09;180526;292;663509;-48
2022/09/01 03:03:03;;;;;;;;;;;;;;;21.69;67.64;97204.96;180820;291;661327;-44
2022/09/01 03:04:07;;;;;;;;;;;;;;;21.70;67.63;97196.14;181251;292;662666;-43
2022/09/01 03:05:09;;;;;;;;;;;;;;;21.69;67.64;97199.44;180871;291;630129;-43
2022/09/01 03:06:11;;;;;;;;;;;;;;;21.68;67.63;97196.45;181263;292;660976;-43
2022/09/01 03:07:13;;;;;;;;;;;;;;;21.70;67.62;97197.52;180862;291;660498;-47
2022/09/01 03:08:15;;;;;;;;;;;;;;;21.70;67.61;97196.14;181119;292;662207;-43
2022/09/01 03:09:17;;;;;;;;;;;;;;;21.70;67.60;97197.52;181334;291;664434;-44
2022/09/01 03:10:20;;;;;;;;;;;;;;;21.69;67.59;97198.06;180814;291;660315;-46
2022/09/01 03:11:23;;;;;;;;;;;;;;;21.69;67.60;97198.06;180853;292;662993;-44
2022/09/01 03:12:27;;;;;;;;;;;;;;;21.70;67.61;97196.14;181015;291;664642;-44
2022/09/01 03:13:29;;;;;;;;;;;;;;;21.69;67.59;97199.44;181016;291;626597;-44
2022/09/01 03:14:31;;;;;;;;;;;;;;;21.69;67.60;97202.20;181099;292;661978;-49
2022/09/01 03:15:35;;;;;;;;;;;;;;;21.69;67.58;97200.83;181400;291;664061;-43
2022/09/01 03:16:38;;;;;;;;;;;;;;;21.69;67.59;97203.58;181524;291;663921;-46
2022/09/01 03:17:40;;;;;;;;;;;;;;;21.66;67.60;97195.41;180852;292;661829;-44
2022/09/01 03:18:42;;;;;;;;;;;;;;;21.68;67.59;97200.59;180823;291;662152;-45
2022/09/01 03:19:45;;;;;;;;;;;;;;;21.69;67.59;97202.77;180596;292;661888;-44
2022/09/01 03:20:49;;;;;;;;;;;;;;;21.66;67.56;97200.92;181036;291;662562;-49
2022/09/01 03:21:51;;;;;;;;;;;;;;;21.68;67.60;97197.02;180895;291;632357;-49
2022/09/01 03:22:53;;;;;;;;;;;;;;;21.65;67.58;97196.55;180104;292;662395;-47
2022/09/01 03:23:56;;;;;;;;;;;;;;;21.66;67.59;97198.73;180770;292;661873;-46
2022/09/01 03:24:58;;;;;;;;;;;;;;;21.66;67.58;97193.22;180987;291;661555;-43
2022/09/01 03:26:00;;;;;;;;;;;;;;;21.66;67.57;97200.11;180289;292;662421;-44
2022/09/01 03:27:02;;;;;;;;;;;;;;;21.66;67.58;97195.97;180798;291;663412;-46
2022/09/01 03:28:04;;;;;;;;;;;;;;;21.65;67.60;97198.49;180458;292;661796;-46
2022/09/01 03:29:07;;;;;;;;;;;;;;;21.65;67.59;97202.06;180706;291;661245;-48
2022/09/01 03:30:09;;;;;;;;;;;;;;;21.65;67.60;97195.73;180787;292;661412;-43
2022/09/01 03:31:11;;;;;;;;;;;;;;;21.65;67.59;97201.25;180922;291;663925;-43
2022/09/01 03:32:13;;;;;;;;;;;;;;;21.64;67.57;97197.69;181061;291;663785;-49
2022/09/01 03:33:15;;;;;;;;;;;;;;;21.65;67.59;97205.39;180977;291;660018;-44
2022/09/01 03:34:20;;;;;;;;;;;;;;;21.65;67.55;97199.88;180670;292;662279;-46
2022/09/01 03:35:21;;;;;;;;;;;;;;;21.64;67.57;97201.83;181642;291;630318;-43
2022/09/01 03:36:23;;;;;;;;;;;;;;;21.63;67.56;97196.07;181519;291;662752;-45
2022/09/01 03:37:25;;;;;;;;;;;;;;;21.64;67.55;97196.87;181010;291;661494;-46
2022/09/01 03:38:28;;;;;;;;;;;;;;;21.65;67.56;97197.11;180160;292;661967;-46
2022/09/01 03:39:30;;;;;;;;;;;;;;;21.63;67.56;97199.40;181005;291;662358;-43
2022/09/01 03:40:32;;;;;;;;;;;;;;;21.65;67.56;97204.82;181297;291;661855;-46
2022/09/01 03:41:36;;;;;;;;;;;;;;;21.64;67.57;97198.26;180833;291;663864;-44
2022/09/01 03:42:37;;;;;;;;;;;;;;;21.64;67.56;97203.20;180453;292;630435;-46
2022/09/01 03:43:39;;;;;;;;;;;;;;;21.64;67.56;97199.64;180744;291;663873;-45
2022/09/01 03:44:43;;;;;;;;;;;;;;;21.64;67.56;97199.64;180587;292;661651;-48
2022/09/01 03:45:45;;;;;;;;;;;;;;;21.64;67.58;97201.02;181072;291;662763;-42
2022/09/01 03:46:47;;;;;;;;;;;;;;;21.63;67.57;97198.83;180290;292;662297;-48
2022/09/01 03:47:48;;;;;;;;;;;;;;;21.62;67.58;97200.54;180984;291;660969;-43
2022/09/01 03:48:50;;;;;;;;;;;;;;;21.63;67.58;97197.45;181298;291;663865;-42
2022/09/01 03:49:53;;;;;;;;;;;;;;;21.64;67.58;97199.64;181500;291;662950;-46
2022/09/01 03:50:55;;;;;;;;;;;;;;;21.62;67.57;97200.54;180842;291;663780;-44
2022/09/01 03:51:57;;;;;;;;;;;;;;;21.62;67.57;97201.35;180180;292;661260;-45
2022/09/01 03:53:00;;;;;;;;;;;;;;;21.64;67.57;97203.77;180962;291;662465;-46
2022/09/01 03:54:03;;;;;;;;;;;;;;;21.64;67.56;97201.83;180960;291;630636;-46
2022/09/01 03:55:05;;;;;;;;;;;;;;;21.62;67.60;97193.65;181259;291;663708;-43
2022/09/01 03:56:07;;;;;;;;;;;;;;;21.62;67.57;97201.92;180598;292;664021;-44
2022/09/01 03:57:09;;;;;;;;;;;;;;;21.63;67.57;97198.02;181041;291;664535;-45
2022/09/01 03:58:13;;;;;;;;;;;;;;;21.61;67.58;97196.98;181097;291;660260;-44
2022/09/01 03:59:18;;;;;;;;;;;;;;;21.63;67.57;97198.02;180772;291;663712;-44
2022/09/01 04:00:21;;;;;;;;;;;;;;;21.63;67.58;97196.64;180343;292;662711;-44
2022/09/01 04:01:23;;;;;;;;;;;;;;;21.62;67.56;97197.78;181114;291;663109;-43
2022/09/01 04:02:28;;;;;;;;;;;;;;;21.62;67.57;97199.16;181356;291;663758;-46
2022/09/01 04:03:30;;;;;;;;;;;;;;;21.62;67.58;97197.78;181652;291;633812;-43
2022/09/01 04:04:32;;;;;;;;;;;;;;;21.61;67.57;97195.59;180936;291;661639;-43
2022/09/01 04:05:34;;;;;;;;;;;;;;;21.62;67.58;97201.92;181125;291;662800;-45
2022/09/01 04:06:36;;;;;;;;;;;;;;;21.62;67.59;97199.16;181207;291;664109;-43
2022/09/01 04:07:38;;;;;;;;;;;;;;;21.61;67.59;97199.73;181073;291;661114;-49
2022/09/01 04:08:41;;;;;;;;;;;;;;;21.60;67.59;97193.98;180782;291;661967;-43
2022/09/01 04:09:43;;;;;;;;;;;;;;;21.60;67.59;97193.17;181142;291;662705;-44
2022/09/01 04:10:48;;;;;;;;;;;;;;;21.61;67.61;97198.92;180739;291;661397;-43
2022/09/01 04:11:49;;;;;;;;;;;;;;;21.59;67.61;97191.55;180583;292;630040;-44
2022/09/01 04:12:51;;;;;;;;;;;;;;;21.60;67.62;97195.93;180871;291;663318;-44
2022/09/01 04:13:53;;;;;;;;;;;;;;;21.59;67.61;97190.17;181155;291;660432;-43
2022/09/01 04:14:55;;;;;;;;;;;;;;;21.60;67.59;97193.17;181324;291;663790;-48
2022/09/01 04:15:57;;;;;;;;;;;;;;;21.59;67.59;97193.74;180062;292;664302;-45
2022/09/01 04:18:19;;;;;;;;;;;;;;;21.58;67.61;97197.61;181285;291;623052;-44
2022/09/01 04:19:24;;;;;;;;;;;;;;;21.58;67.63;97196.23;180304;292;661735;-43
2022/09/01 04:20:25;;;;;;;;;;;;;;;21.59;67.64;97196.50;181140;291;635893;-45
2022/09/01 04:21:29;;;;;;;;;;;;;;;21.58;67.64;97193.47;180153;292;661807;-45
2022/09/01 04:22:31;;;;;;;;;;;;;;;21.60;67.66;97195.93;180889;291;626950;-43
2022/09/01 04:23:32;;;;;;;;;;;;;;;21.59;67.66;97198.45;180782;292;660462;-45
2022/09/01 04:24:34;;;;;;;;;;;;;;;21.59;67.68;97202.02;180815;291;662735;-45
2022/09/01 04:25:37;;;;;;;;;;;;;;;21.59;67.66;97202.59;180236;292;665308;-47
2022/09/01 04:26:40;;;;;;;;;;;;;;;21.59;67.66;97202.59;180942;291;663464;-43
2022/09/01 04:27:41;;;;;;;;;;;;;;;21.59;67.68;97197.08;180886;291;662592;-48
2022/09/01 04:28:49;;;;;;;;;;;;;;;21.59;67.67;97195.69;180765;291;660933;-44
2022/09/01 04:29:48;;;;;;;;;;;;;;;21.59;67.68;97197.08;180823;292;631743;-45
2022/09/01 04:30:50;;;;;;;;;;;;;;;21.60;67.68;97200.06;180950;291;662697;-43
2022/09/01 04:31:52;;;;;;;;;;;;;;;21.58;67.67;97198.19;181332;291;663238;-45
2022/09/01 04:32:55;;;;;;;;;;;;;;;21.59;67.66;97199.83;181018;291;658058;-54
2022/09/01 04:33:58;;;;;;;;;;;;;;;21.58;67.67;97195.42;180931;291;662992;-48
2022/09/01 04:35:00;;;;;;;;;;;;;;;21.59;67.70;97198.45;180478;292;661451;-44
2022/09/01 04:36:02;;;;;;;;;;;;;;;21.58;67.70;97195.42;181317;291;662946;-43
2022/09/01 04:37:05;;;;;;;;;;;;;;;21.58;67.72;97198.19;181474;291;660717;-46
2022/09/01 04:38:07;;;;;;;;;;;;;;;21.57;67.69;97200.70;180938;291;662791;-48
2022/09/01 04:39:11;;;;;;;;;;;;;;;21.58;67.71;97204.51;180407;292;661561;-47
2022/09/01 04:40:13;;;;;;;;;;;;;;;21.58;67.70;97198.19;181071;291;662661;-45
2022/09/01 04:41:16;;;;;;;;;;;;;;;21.57;67.70;97200.13;180572;292;662673;-44
2022/09/01 04:42:22;;;;;;;;;;;;;;;21.57;67.69;97200.70;180813;292;662686;-46
2022/09/01 04:43:22;;;;;;;;;;;;;;;21.58;67.69;97200.94;180881;291;629412;-47
2022/09/01 04:44:24;;;;;;;;;;;;;;;21.57;67.71;97202.08;180738;292;661376;-44
2022/09/01 04:45:26;;;;;;;;;;;;;;;21.57;67.73;97204.27;181035;291;664342;-46
2022/09/01 04:46:30;;;;;;;;;;;;;;;21.58;67.71;97203.70;180248;292;662595;-45
2022/09/01 04:47:32;;;;;;;;;;;;;;;21.56;67.70;97199.89;180974;291;664160;-48
2022/09/01 04:48:35;;;;;;;;;;;;;;;21.57;67.69;97202.08;180152;292;662052;-45
2022/09/01 04:49:37;;;;;;;;;;;;;;;21.56;67.70;97203.22;181108;291;664299;-51
2022/09/01 04:50:39;;;;;;;;;;;;;;;21.56;67.68;97200.47;180648;291;663738;-44
2022/09/01 04:51:41;;;;;;;;;;;;;;;21.56;67.67;97199.89;180955;291;663638;-47
2022/09/01 04:52:43;;;;;;;;;;;;;;;21.56;67.68;97204.61;180245;292;661193;-44
2022/09/01 04:53:47;;;;;;;;;;;;;;;21.57;67.68;97204.84;181014;291;662672;-46
2022/09/01 04:54:49;;;;;;;;;;;;;;;21.56;67.67;97206.79;181118;291;662510;-44
2022/09/01 04:55:54;;;;;;;;;;;;;;;21.57;67.66;97202.08;180671;292;662832;-44
2022/09/01 04:56:54;;;;;;;;;;;;;;;21.56;67.69;97203.22;180889;291;629797;-54
2022/09/01 04:57:56;;;;;;;;;;;;;;;21.56;67.68;97202.66;180077;292;661621;-49
2022/09/01 04:58:59;;;;;;;;;;;;;;;21.56;67.67;97201.84;181322;291;663969;-44
2022/09/01 05:00:01;;;;;;;;;;;;;;;21.56;67.68;97201.84;181167;291;664681;-43
2022/09/01 05:01:06;;;;;;;;;;;;;;;21.55;67.70;97198.84;181041;291;661723;-46
2022/09/01 05:02:08;;;;;;;;;;;;;;;21.55;67.71;97202.41;180205;292;631391;-50
2022/09/01 05:03:10;;;;;;;;;;;;;;;21.54;67.72;97198.05;180866;291;662603;-45
2022/09/01 05:04:13;;;;;;;;;;;;;;;21.56;67.71;97208.74;180708;292;662404;-47
2022/09/01 05:05:15;;;;;;;;;;;;;;;21.55;67.71;97196.09;180864;292;664589;-44
2022/09/01 05:06:17;;;;;;;;;;;;;;;21.56;67.72;97205.98;181028;291;663319;-46
2022/09/01 05:07:20;;;;;;;;;;;;;;;21.55;67.71;97201.61;181127;291;661864;-44
2022/09/01 05:08:22;;;;;;;;;;;;;;;21.54;67.72;97198.61;180938;291;662994;-46
2022/09/01 05:09:24;;;;;;;;;;;;;;;21.55;67.73;97198.84;181109;291;660422;-47
2022/09/01 05:10:28;;;;;;;;;;;;;;;21.54;67.74;97201.38;181500;291;664636;-45
2022/09/01 05:11:31;;;;;;;;;;;;;;;21.55;67.71;97202.98;181296;291;630547;-46
2022/09/01 05:12:34;;;;;;;;;;;;;;;21.56;67.70;97203.22;180900;291;661132;-45
2022/09/01 05:13:38;;;;;;;;;;;;;;;21.55;67.71;97201.61;180994;291;663931;-44
2022/09/01 05:14:41;;;;;;;;;;;;;;;21.54;67.70;97199.99;181426;291;631354;-46
2022/09/01 05:15:45;;;;;;;;;;;;;;;21.55;67.70;97201.61;181201;291;661912;-45
2022/09/01 05:16:46;;;;;;;;;;;;;;;21.54;67.71;97202.75;181138;291;634496;-50
2022/09/01 05:17:48;;;;;;;;;;;;;;;21.54;67.71;97202.75;181177;291;661565;-45
2022/09/01 05:18:50;;;;;;;;;;;;;;;21.54;67.71;97201.38;180792;291;662654;-46
2022/09/01 05:19:53;;;;;;;;;;;;;;;21.54;67.71;97203.55;180378;292;663567;-47
2022/09/01 05:20:56;;;;;;;;;;;;;;;21.54;67.71;97202.75;180905;291;663131;-48
2022/09/01 05:21:58;;;;;;;;;;;;;;;21.54;67.71;97208.27;180572;292;663229;-47
2022/09/01 05:23:00;;;;;;;;;;;;;;;21.54;67.71;97212.41;180860;291;662626;-48
2022/09/01 05:24:03;;;;;;;;;;;;;;;21.54;67.70;97206.31;180951;291;663954;-45
2022/09/01 05:25:11;;;;;;;;;;;;;;;21.54;67.71;97200.80;180620;292;663787;-47
2022/09/01 05:26:13;;;;;;;;;;;;;;;21.54;67.71;97204.13;180690;291;630907;-44